sensor_id;sensor_type;location;lat;lon;timestamp;pressure;altitude;pressure_sealevel;temperature;humidity
45255;BME280;30989;52.078;21.014;2022-09-28T00:01:50;166517.69;;;10.53;100.00
45255;BME280;30989;52.078;21.014;2022-09-28T00:04:16;166512.31;;;10.51;100.00
45255;BME280;30989;52.078;21.014;2022-09-28T00:06:41;166504.28;;;10.48;100.00
45255;BME280;30989;52.078;21.014;2022-09-28T00:09:07;166498.94;;;10.46;100.00
45255;BME280;30989;52.078;21.014;2022-09-28T00:11:32;166465.41;;;10.33;100.00
45255;BME280;30989;52.078;21.014;2022-09-28T00:13:59;166485.53;;;10.41;100.00
45255;BME280;30989;52.078;21.014;2022-09-28T00:16:33;166473.44;;;10.37;100.00
45255;BME280;30989;52.078;21.014;2022-09-28T00:18:59;166464.06;;;10.33;100.00
45255;BME280;30989;52.078;21.014;2022-09-28T00:21:28;166457.38;;;10.30;100.00
45255;BME280;30989;52.078;21.014;2022-09-28T00:23:55;166437.28;;;10.23;100.00
45255;BME280;30989;52.078;21.014;2022-09-28T00:26:52;166430.59;;;10.20;100.00
45255;BME280;30989;52.078;21.014;2022-09-28T00:29:25;166418.50;;;10.16;100.00
45255;BME280;30989;52.078;21.014;2022-09-28T00:31:56;166399.75;;;10.09;100.00
45255;BME280;30989;52.078;21.014;2022-09-28T00:34:27;166391.72;;;10.06;100.00
45255;BME280;30989;52.078;21.014;2022-09-28T00:36:55;166378.31;;;10.00;100.00
45255;BME280;30989;52.078;21.014;2022-09-28T00:39:21;166364.94;;;9.95;100.00
45255;BME280;30989;52.078;21.014;2022-09-28T00:41:46;166352.88;;;9.91;100.00
45255;BME280;30989;52.078;21.014;2022-09-28T00:50:08;166330.13;;;9.82;100.00
45255;BME280;30989;52.078;21.014;2022-09-28T00:52:59;166320.75;;;9.79;100.00
45255;BME280;30989;52.078;21.014;2022-09-28T00:55:47;166326.09;;;9.81;100.00
45255;BME280;30989;52.078;21.014;2022-09-28T00:58:18;166318.06;;;9.78;100.00
45255;BME280;30989;52.078;21.014;2022-09-28T01:00:46;166316.72;;;9.77;100.00
45255;BME280;30989;52.078;21.014;2022-09-28T01:03:13;166319.41;;;9.78;100.00
45255;BME280;30989;52.078;21.014;2022-09-28T01:05:39;166316.72;;;9.77;100.00
45255;BME280;30989;52.078;21.014;2022-09-28T01:08:06;166319.41;;;9.78;100.00
45255;BME280;30989;52.078;21.014;2022-09-28T01:10:32;166314.06;;;9.76;100.00
45255;BME280;30989;52.078;21.014;2022-09-28T01:12:57;166315.41;;;9.77;100.00
45255;BME280;30989;52.078;21.014;2022-09-28T01:15:26;166308.69;;;9.74;100.00
45255;BME280;30989;52.078;21.014;2022-09-28T01:18:00;166311.38;;;9.75;100.00
45255;BME280;30989;52.078;21.014;2022-09-28T01:28:45;166304.69;;;9.73;100.00
45255;BME280;30989;52.078;21.014;2022-09-28T01:31:14;166291.31;;;9.67;100.00
45255;BME280;30989;52.078;21.014;2022-09-28T01:33:49;166292.63;;;9.68;100.00
45255;BME280;30989;52.078;21.014;2022-09-28T01:36:24;166291.31;;;9.67;100.00
45255;BME280;30989;52.078;21.014;2022-09-28T01:38:59;166284.59;;;9.65;100.00
45255;BME280;30989;52.078;21.014;2022-09-28T01:41:28;166271.22;;;9.60;100.00
45255;BME280;30989;52.078;21.014;2022-09-28T01:43:55;166284.59;;;9.65;100.00
45255;BME280;30989;52.078;21.014;2022-09-28T01:46:37;166281.94;;;9.64;100.00
45255;BME280;30989;52.078;21.014;2022-09-28T01:49:22;166281.94;;;9.64;100.00
45255;BME280;30989;52.078;21.014;2022-09-28T01:52:09;166261.84;;;9.56;100.00
45255;BME280;30989;52.078;21.014;2022-09-28T01:54:44;166244.44;;;9.50;100.00
45255;BME280;30989;52.078;21.014;2022-09-28T01:57:18;166244.44;;;9.50;100.00
45255;BME280;30989;52.078;21.014;2022-09-28T02:00:01;166253.81;;;9.53;100.00
45255;BME280;30989;52.078;21.014;2022-09-28T02:02:47;166241.78;;;9.49;100.00
45255;BME280;30989;52.078;21.014;2022-09-28T02:05:20;166231.06;;;9.45;100.00
45255;BME280;30989;52.078;21.014;2022-09-28T02:10:50;166223.03;;;9.42;100.00
45255;BME280;30989;52.078;21.014;2022-09-28T02:13:24;166197.63;;;9.32;100.00
45255;BME280;30989;52.078;21.014;2022-09-28T02:15:57;166216.34;;;9.39;100.00
45255;BME280;30989;52.078;21.014;2022-09-28T02:18:25;166216.34;;;9.39;100.00
45255;BME280;30989;52.078;21.014;2022-09-28T02:20:56;166219.03;;;9.40;100.00
45255;BME280;30989;52.078;21.014;2022-09-28T02:23:27;166209.66;;;9.36;100.00
45255;BME280;30989;52.078;21.014;2022-09-28T02:26:00;166212.34;;;9.37;100.00
45255;BME280;30989;52.078;21.014;2022-09-28T02:28:26;166215.00;;;9.38;100.00
45255;BME280;30989;52.078;21.014;2022-09-28T02:30:52;166205.63;;;9.35;100.00
45255;BME280;30989;52.078;21.014;2022-09-28T02:33:21;166209.66;;;9.36;100.00
45255;BME280;30989;52.078;21.014;2022-09-28T02:35:49;166211.00;;;9.37;100.00
45255;BME280;30989;52.078;21.014;2022-09-28T02:38:17;166209.66;;;9.36;100.00
45255;BME280;30989;52.078;21.014;2022-09-28T02:40:49;166220.38;;;9.41;100.00
45255;BME280;30989;52.078;21.014;2022-09-28T02:49:36;166219.03;;;9.40;100.00
45255;BME280;30989;52.078;21.014;2022-09-28T02:52:28;166220.38;;;9.41;100.00
45255;BME280;30989;52.078;21.014;2022-09-28T02:58:16;166220.38;;;9.41;100.00
45255;BME280;30989;52.078;21.014;2022-09-28T03:00:49;166225.72;;;9.43;100.00
45255;BME280;30989;52.078;21.014;2022-09-28T03:06:26;166232.41;;;9.45;100.00
45255;BME280;30989;52.078;21.014;2022-09-28T03:09:07;166232.41;;;9.45;100.00
45255;BME280;30989;52.078;21.014;2022-09-28T03:11:40;166241.78;;;9.49;100.00
45255;BME280;30989;52.078;21.014;2022-09-28T03:14:08;166237.75;;;9.47;100.00
45255;BME280;30989;52.078;21.014;2022-09-28T03:16:45;166232.41;;;9.45;100.00
45255;BME280;30989;52.078;21.014;2022-09-28T03:19:11;166227.06;;;9.43;100.00
45255;BME280;30989;52.078;21.014;2022-09-28T03:21:37;166232.41;;;9.45;100.00
45255;BME280;30989;52.078;21.014;2022-09-28T03:24:03;166233.75;;;9.46;100.00
45255;BME280;30989;52.078;21.014;2022-09-28T03:26:29;166225.72;;;9.43;100.00
45255;BME280;30989;52.078;21.014;2022-09-28T03:28:55;166241.78;;;9.49;100.00
45255;BME280;30989;52.078;21.014;2022-09-28T03:31:22;166239.09;;;9.48;100.00
45255;BME280;30989;52.078;21.014;2022-09-28T03:33:49;166241.78;;;9.49;100.00
45255;BME280;30989;52.078;21.014;2022-09-28T03:36:15;166236.41;;;9.47;100.00
45255;BME280;30989;52.078;21.014;2022-09-28T03:38:40;166232.41;;;9.45;100.00
45255;BME280;30989;52.078;21.014;2022-09-28T03:41:06;166255.16;;;9.54;100.00
45255;BME280;30989;52.078;21.014;2022-09-28T03:43:34;166251.16;;;9.52;100.00
45255;BME280;30989;52.078;21.014;2022-09-28T03:46:01;166263.19;;;9.57;100.00
45255;BME280;30989;52.078;21.014;2022-09-28T03:48:30;166259.19;;;9.55;100.00
45255;BME280;30989;52.078;21.014;2022-09-28T03:50:58;166265.88;;;9.58;100.00
45255;BME280;30989;52.078;21.014;2022-09-28T03:53:25;166271.22;;;9.60;100.00
45255;BME280;30989;52.078;21.014;2022-09-28T03:55:51;166264.53;;;9.57;100.00
45255;BME280;30989;52.078;21.014;2022-09-28T03:58:21;166263.19;;;9.57;100.00
45255;BME280;30989;52.078;21.014;2022-09-28T04:00:48;166268.53;;;9.59;100.00
45255;BME280;30989;52.078;21.014;2022-09-28T04:03:13;166260.50;;;9.56;100.00
45255;BME280;30989;52.078;21.014;2022-09-28T04:05:47;166261.84;;;9.56;100.00
45255;BME280;30989;52.078;21.014;2022-09-28T04:08:13;166251.16;;;9.52;100.00
45255;BME280;30989;52.078;21.014;2022-09-28T04:10:38;166243.13;;;9.49;100.00
45255;BME280;30989;52.078;21.014;2022-09-28T04:13:05;166243.13;;;9.49;100.00
45255;BME280;30989;52.078;21.014;2022-09-28T04:15:30;166232.41;;;9.45;100.00
45255;BME280;30989;52.078;21.014;2022-09-28T04:17:56;166229.72;;;9.44;100.00
45255;BME280;30989;52.078;21.014;2022-09-28T04:20:45;166212.34;;;9.37;100.00
45255;BME280;30989;52.078;21.014;2022-09-28T04:23:14;166192.25;;;9.30;100.00
45255;BME280;30989;52.078;21.014;2022-09-28T04:25:40;166211.00;;;9.37;100.00
45255;BME280;30989;52.078;21.014;2022-09-28T04:28:07;166198.94;;;9.32;100.00
45255;BME280;30989;52.078;21.014;2022-09-28T04:30:52;166173.53;;;9.23;100.00
45255;BME280;30989;52.078;21.014;2022-09-28T04:33:17;166185.56;;;9.27;100.00
45255;BME280;30989;52.078;21.014;2022-09-28T04:35:43;166184.22;;;9.27;100.00
45255;BME280;30989;52.078;21.014;2022-09-28T04:38:08;166177.53;;;9.24;100.00
45255;BME280;30989;52.078;21.014;2022-09-28T04:40:37;166177.53;;;9.24;100.00
45255;BME280;30989;52.078;21.014;2022-09-28T04:43:03;166156.13;;;9.16;100.00
45255;BME280;30989;52.078;21.014;2022-09-28T04:45:28;166168.16;;;9.21;100.00
45255;BME280;30989;52.078;21.014;2022-09-28T04:48:00;166162.81;;;9.19;100.00
45255;BME280;30989;52.078;21.014;2022-09-28T04:50:43;166160.16;;;9.18;100.00
45255;BME280;30989;52.078;21.014;2022-09-28T04:53:16;166164.16;;;9.19;100.00
45255;BME280;30989;52.078;21.014;2022-09-28T04:55:41;166162.81;;;9.19;100.00
45255;BME280;30989;52.078;21.014;2022-09-28T04:58:07;166144.09;;;9.12;100.00
45255;BME280;30989;52.078;21.014;2022-09-28T05:00:33;166146.75;;;9.13;100.00
45255;BME280;30989;52.078;21.014;2022-09-28T05:03:18;166153.47;;;9.15;100.00
45255;BME280;30989;52.078;21.014;2022-09-28T05:06:02;166140.06;;;9.10;100.00
45255;BME280;30989;52.078;21.014;2022-09-28T05:08:38;166158.81;;;9.17;100.00
45255;BME280;30989;52.078;21.014;2022-09-28T05:11:06;166157.47;;;9.17;100.00
45255;BME280;30989;52.078;21.014;2022-09-28T05:13:37;166158.81;;;9.17;100.00
45255;BME280;30989;52.078;21.014;2022-09-28T05:16:06;166152.13;;;9.15;100.00
45255;BME280;30989;52.078;21.014;2022-09-28T05:18:40;166149.44;;;9.14;100.00
45255;BME280;30989;52.078;21.014;2022-09-28T05:21:13;166156.13;;;9.16;100.00
45255;BME280;30989;52.078;21.014;2022-09-28T05:23:40;166157.47;;;9.17;100.00
45255;BME280;30989;52.078;21.014;2022-09-28T05:26:06;166140.06;;;9.10;100.00
45255;BME280;30989;52.078;21.014;2022-09-28T05:28:34;166142.75;;;9.11;100.00
45255;BME280;30989;52.078;21.014;2022-09-28T05:31:35;166148.09;;;9.13;100.00
45255;BME280;30989;52.078;21.014;2022-09-28T05:34:06;166150.78;;;9.14;100.00
45255;BME280;30989;52.078;21.014;2022-09-28T05:36:32;166146.75;;;9.13;100.00
45255;BME280;30989;52.078;21.014;2022-09-28T05:38:57;166138.72;;;9.10;100.00
45255;BME280;30989;52.078;21.014;2022-09-28T05:41:23;166132.03;;;9.07;100.00
45255;BME280;30989;52.078;21.014;2022-09-28T05:43:48;166137.41;;;9.09;100.00
45255;BME280;30989;52.078;21.014;2022-09-28T05:46:16;166128.03;;;9.05;100.00
45255;BME280;30989;52.078;21.014;2022-09-28T05:48:42;166118.66;;;9.02;100.00
45255;BME280;30989;52.078;21.014;2022-09-28T05:51:08;166106.63;;;8.97;100.00
45255;BME280;30989;52.078;21.014;2022-09-28T05:53:34;166113.31;;;9.00;100.00
45255;BME280;30989;52.078;21.014;2022-09-28T05:56:00;166121.34;;;9.03;100.00
45255;BME280;30989;52.078;21.014;2022-09-28T05:58:29;166137.41;;;9.09;100.00
45255;BME280;30989;52.078;21.014;2022-09-28T06:00:57;166137.41;;;9.09;100.00
45255;BME280;30989;52.078;21.014;2022-09-28T06:03:23;166132.03;;;9.07;100.00
45255;BME280;30989;52.078;21.014;2022-09-28T06:05:49;166133.38;;;9.08;100.00
45255;BME280;30989;52.078;21.014;2022-09-28T06:08:14;166132.03;;;9.07;100.00
45255;BME280;30989;52.078;21.014;2022-09-28T06:10:44;166132.03;;;9.07;100.00
45255;BME280;30989;52.078;21.014;2022-09-28T06:13:09;166128.03;;;9.05;100.00
45255;BME280;30989;52.078;21.014;2022-09-28T06:15:37;166134.72;;;9.08;100.00
45255;BME280;30989;52.078;21.014;2022-09-28T06:18:05;166133.38;;;9.08;100.00
45255;BME280;30989;52.078;21.014;2022-09-28T06:20:38;166133.38;;;9.08;100.00
45255;BME280;30989;52.078;21.014;2022-09-28T06:23:13;166133.38;;;9.08;100.00
45255;BME280;30989;52.078;21.014;2022-09-28T06:25:39;166144.09;;;9.12;100.00
45255;BME280;30989;52.078;21.014;2022-09-28T06:28:08;166142.75;;;9.11;100.00
45255;BME280;30989;52.078;21.014;2022-09-28T06:30:34;166149.44;;;9.14;100.00
45255;BME280;30989;52.078;21.014;2022-09-28T06:33:05;166148.09;;;9.13;100.00
45255;BME280;30989;52.078;21.014;2022-09-28T06:35:31;166164.16;;;9.19;100.00
45255;BME280;30989;52.078;21.014;2022-09-28T06:38:00;166176.19;;;9.24;100.00
45255;BME280;30989;52.078;21.014;2022-09-28T06:40:26;166196.28;;;9.31;100.00
45255;BME280;30989;52.078;21.014;2022-09-28T06:42:57;166213.66;;;9.38;100.00
45255;BME280;30989;52.078;21.014;2022-09-28T06:45:42;166231.06;;;9.45;100.00
45255;BME280;30989;52.078;21.014;2022-09-28T06:48:26;166228.38;;;9.44;100.00
45255;BME280;30989;52.078;21.014;2022-09-28T06:50:52;166257.84;;;9.55;100.00
45255;BME280;30989;52.078;21.014;2022-09-28T06:53:31;166276.56;;;9.62;100.00
45255;BME280;30989;52.078;21.014;2022-09-28T06:56:00;166268.53;;;9.59;100.00
45255;BME280;30989;52.078;21.014;2022-09-28T06:58:27;166263.19;;;9.57;100.00
45255;BME280;30989;52.078;21.014;2022-09-28T07:00:55;166277.91;;;9.62;100.00
45255;BME280;30989;52.078;21.014;2022-09-28T07:03:25;166289.97;;;9.67;100.00
45255;BME280;30989;52.078;21.014;2022-09-28T07:05:55;166303.34;;;9.72;100.00
45255;BME280;30989;52.078;21.014;2022-09-28T07:08:39;166308.69;;;9.74;100.00
45255;BME280;30989;52.078;21.014;2022-09-28T07:11:25;166327.44;;;9.81;100.00
45255;BME280;30989;52.078;21.014;2022-09-28T07:14:11;166331.47;;;9.83;100.00
45255;BME280;30989;52.078;21.014;2022-09-28T07:16:37;166346.19;;;9.88;100.00
45255;BME280;30989;52.078;21.014;2022-09-28T07:19:03;166363.59;;;9.95;100.00
45255;BME280;30989;52.078;21.014;2022-09-28T07:21:28;166374.31;;;9.99;100.00
45255;BME280;30989;52.078;21.014;2022-09-28T07:23:54;166415.81;;;10.15;100.00
45255;BME280;30989;52.078;21.014;2022-09-28T07:26:22;166438.63;;;10.23;100.00
45255;BME280;30989;52.078;21.014;2022-09-28T07:29:02;166480.13;;;10.39;100.00
45255;BME280;30989;52.078;21.014;2022-09-28T07:31:36;166515.00;;;10.52;100.00
45255;BME280;30989;52.078;21.014;2022-09-28T07:34:37;166560.53;;;10.70;100.00
45255;BME280;30989;52.078;21.014;2022-09-28T07:37:16;166577.97;;;10.76;100.00
45255;BME280;30989;52.078;21.014;2022-09-28T07:39:44;166568.59;;;10.73;100.00
45255;BME280;30989;52.078;21.014;2022-09-28T07:42:32;166568.59;;;10.73;100.00
45255;BME280;30989;52.078;21.014;2022-09-28T07:44:58;166571.25;;;10.74;100.00
45255;BME280;30989;52.078;21.014;2022-09-28T07:47:24;166549.81;;;10.65;100.00
45255;BME280;30989;52.078;21.014;2022-09-28T07:50:12;166552.50;;;10.67;100.00
45255;BME280;30989;52.078;21.014;2022-09-28T07:53:00;166571.25;;;10.74;100.00
45255;BME280;30989;52.078;21.014;2022-09-28T07:55:29;166587.34;;;10.80;100.00
45255;BME280;30989;52.078;21.014;2022-09-28T07:58:09;166603.41;;;10.86;100.00
45255;BME280;30989;52.078;21.014;2022-09-28T08:00:53;166608.75;;;10.88;100.00
45255;BME280;30989;52.078;21.014;2022-09-28T08:03:19;166622.16;;;10.93;100.00
45255;BME280;30989;52.078;21.014;2022-09-28T08:05:47;166631.53;;;10.96;100.00
45255;BME280;30989;52.078;21.014;2022-09-28T08:08:13;166622.16;;;10.93;100.00
45255;BME280;30989;52.078;21.014;2022-09-28T08:10:42;166646.28;;;11.02;100.00
45255;BME280;30989;52.078;21.014;2022-09-28T08:13:19;166646.28;;;11.02;100.00
45255;BME280;30989;52.078;21.014;2022-09-28T08:16:02;166658.34;;;11.07;100.00
45255;BME280;30989;52.078;21.014;2022-09-28T08:18:36;166650.28;;;11.04;100.00
45255;BME280;30989;52.078;21.014;2022-09-28T08:21:04;166685.13;;;11.17;100.00
45255;BME280;30989;52.078;21.014;2022-09-28T08:23:49;166694.50;;;11.20;100.00
45255;BME280;30989;52.078;21.014;2022-09-28T08:26:15;166678.44;;;11.14;100.00
45255;BME280;30989;52.078;21.014;2022-09-28T08:28:42;166683.78;;;11.16;100.00
45255;BME280;30989;52.078;21.014;2022-09-28T08:31:38;166697.19;;;11.21;100.00
45255;BME280;30989;52.078;21.014;2022-09-28T08:34:22;166705.22;;;11.24;100.00
45255;BME280;30989;52.078;21.014;2022-09-28T08:37:04;166742.75;;;11.39;100.00
45255;BME280;30989;52.078;21.014;2022-09-28T08:39:52;166780.28;;;11.53;100.00
45255;BME280;30989;52.078;21.014;2022-09-28T08:42:34;166797.69;;;11.59;100.00
45255;BME280;30989;52.078;21.014;2022-09-28T08:45:26;166780.28;;;11.53;100.00
45255;BME280;30989;52.078;21.014;2022-09-28T08:51:29;166809.75;;;11.64;100.00
45255;BME280;30989;52.078;21.014;2022-09-28T08:54:36;166829.84;;;11.72;100.00
45255;BME280;30989;52.078;21.014;2022-09-28T08:59:56;166851.34;;;11.80;100.00
45255;BME280;30989;52.078;21.014;2022-09-28T09:02:34;166900.94;;;11.99;100.00
45255;BME280;30989;52.078;21.014;2022-09-28T09:05:20;166958.59;;;12.20;100.00
45255;BME280;30989;52.078;21.014;2022-09-28T09:10:51;166939.81;;;12.13;100.00
45255;BME280;30989;52.078;21.014;2022-09-28T09:16:31;166927.75;;;12.09;100.00
45255;BME280;30989;52.078;21.014;2022-09-28T09:19:26;166949.22;;;12.17;98.37
45255;BME280;30989;52.078;21.014;2022-09-28T09:22:38;166929.09;;;12.09;96.84
45255;BME280;30989;52.078;21.014;2022-09-28T09:25:25;166890.22;;;11.94;96.41
45255;BME280;30989;52.078;21.014;2022-09-28T09:28:34;166909.00;;;12.02;98.63
45255;BME280;30989;52.078;21.014;2022-09-28T09:38:30;167051.09;;;12.55;100.00
45255;BME280;30989;52.078;21.014;2022-09-28T09:41:48;167126.22;;;12.84;97.47
45255;BME280;30989;52.078;21.014;2022-09-28T09:47:44;167253.69;;;13.32;93.00
45255;BME280;30989;52.078;21.014;2022-09-28T09:55:41;167332.88;;;13.62;91.71
45255;BME280;30989;52.078;21.014;2022-09-28T09:58:50;167335.53;;;13.63;84.04
45255;BME280;30989;52.078;21.014;2022-09-28T10:01:28;167336.88;;;13.64;84.82
45255;BME280;30989;52.078;21.014;2022-09-28T10:04:42;167374.47;;;13.78;85.50
45255;BME280;30989;52.078;21.014;2022-09-28T10:07:25;167410.69;;;13.92;88.51
45255;BME280;30989;52.078;21.014;2022-09-28T10:09:54;167395.94;;;13.86;86.36
45255;BME280;30989;52.078;21.014;2022-09-28T10:12:42;167338.22;;;13.64;86.95
45255;BME280;30989;52.078;21.014;2022-09-28T10:15:12;167289.94;;;13.46;86.41
45255;BME280;30989;52.078;21.014;2022-09-28T10:17:51;167242.97;;;13.28;86.70
45255;BME280;30989;52.078;21.014;2022-09-28T10:20:38;167206.69;;;13.14;83.71
45255;BME280;30989;52.078;21.014;2022-09-28T10:23:26;167261.75;;;13.35;86.44
45255;BME280;30989;52.078;21.014;2022-09-28T10:26:02;167350.31;;;13.69;85.96
45255;BME280;30989;52.078;21.014;2022-09-28T10:28:39;167496.59;;;14.24;88.01
45255;BME280;30989;52.078;21.014;2022-09-28T10:34:09;167676.56;;;14.92;83.62
45255;BME280;30989;52.078;21.014;2022-09-28T10:36:47;167695.34;;;14.99;82.79
45255;BME280;30989;52.078;21.014;2022-09-28T10:39:51;167761.16;;;15.24;78.98
45255;BME280;30989;52.078;21.014;2022-09-28T10:42:25;167798.78;;;15.38;75.50
45255;BME280;30989;52.078;21.014;2022-09-28T10:44:55;167841.75;;;15.55;77.68
45255;BME280;30989;52.078;21.014;2022-09-28T10:47:36;167914.41;;;15.82;73.34
45255;BME280;30989;52.078;21.014;2022-09-28T10:50:19;167977.56;;;16.06;78.27
45255;BME280;30989;52.078;21.014;2022-09-28T10:52:48;168109.28;;;16.56;77.94
45255;BME280;30989;52.078;21.014;2022-09-28T10:55:34;168327.13;;;17.38;72.86
45255;BME280;30989;52.078;21.014;2022-09-28T10:58:30;168553.16;;;18.23;73.33
45255;BME280;30989;52.078;21.014;2022-09-28T11:01:04;168617.75;;;18.48;69.14
45255;BME280;30989;52.078;21.014;2022-09-28T11:03:38;168507.44;;;18.06;66.43
45255;BME280;30989;52.078;21.014;2022-09-28T11:06:06;168358.06;;;17.50;69.75
45255;BME280;30989;52.078;21.014;2022-09-28T11:08:36;168206.13;;;16.92;68.64
45255;BME280;30989;52.078;21.014;2022-09-28T11:11:07;168050.13;;;16.33;67.64
45255;BME280;30989;52.078;21.014;2022-09-28T11:13:43;167910.38;;;15.81;70.97
45255;BME280;30989;52.078;21.014;2022-09-28T11:18:50;167714.16;;;15.06;71.50
45255;BME280;30989;52.078;21.014;2022-09-28T11:21:21;167626.88;;;14.73;71.75
45255;BME280;30989;52.078;21.014;2022-09-28T11:24:09;167569.13;;;14.51;74.21
45255;BME280;30989;52.078;21.014;2022-09-28T11:26:44;167553.03;;;14.45;74.89
45255;BME280;30989;52.078;21.014;2022-09-28T11:29:42;167641.66;;;14.79;78.03
45255;BME280;30989;52.078;21.014;2022-09-28T11:32:19;167958.75;;;15.99;74.91
45255;BME280;30989;52.078;21.014;2022-09-28T11:35:11;168128.09;;;16.63;71.56
45255;BME280;30989;52.078;21.014;2022-09-28T11:41:26;168117.34;;;16.59;68.34
45255;BME280;30989;52.078;21.014;2022-09-28T11:49:47;167875.47;;;15.67;68.39
45255;BME280;30989;52.078;21.014;2022-09-28T11:55:01;168047.44;;;16.32;67.70
45255;BME280;30989;52.078;21.014;2022-09-28T11:57:34;167993.69;;;16.12;66.42
45255;BME280;30989;52.078;21.014;2022-09-28T12:00:05;167918.44;;;15.84;66.58
45255;BME280;30989;52.078;21.014;2022-09-28T12:02:48;167766.53;;;15.26;67.29
45255;BME280;30989;52.078;21.014;2022-09-28T12:05:24;167657.75;;;14.85;69.88
45255;BME280;30989;52.078;21.014;2022-09-28T12:07:55;167563.78;;;14.49;70.98
45255;BME280;30989;52.078;21.014;2022-09-28T12:13:48;167354.34;;;13.70;72.93
45255;BME280;30989;52.078;21.014;2022-09-28T12:16:20;167268.47;;;13.38;74.59
45255;BME280;30989;52.078;21.014;2022-09-28T12:18:55;167209.38;;;13.15;78.06
45255;BME280;30989;52.078;21.014;2022-09-28T12:23:53;167147.66;;;12.92;84.36
45255;BME280;30989;52.078;21.014;2022-09-28T12:26:39;167362.38;;;13.73;90.19
45255;BME280;30989;52.078;21.014;2022-09-28T12:29:15;167767.88;;;15.27;86.83
45255;BME280;30989;52.078;21.014;2022-09-28T12:31:50;168173.84;;;16.80;82.58
45255;BME280;30989;52.078;21.014;2022-09-28T12:34:16;168528.94;;;18.14;81.16
45255;BME280;30989;52.078;21.014;2022-09-28T12:45:29;169682.22;;;22.49;67.76
45255;BME280;30989;52.078;21.014;2022-09-28T12:51:03;170049.22;;;23.87;60.39
45255;BME280;30989;52.078;21.014;2022-09-28T12:56:32;170158.59;;;24.28;57.07
45255;BME280;30989;52.078;21.014;2022-09-28T13:08:17;169908.88;;;23.34;54.05
45255;BME280;30989;52.078;21.014;2022-09-28T13:10:53;169935.84;;;23.44;54.85
45255;BME280;30989;52.078;21.014;2022-09-28T13:15:59;170012.81;;;23.73;55.04
45255;BME280;30989;52.078;21.014;2022-09-28T13:18:35;169906.16;;;23.33;53.82
45255;BME280;30989;52.078;21.014;2022-09-28T13:23:57;169422.00;;;21.51;55.92
45255;BME280;30989;52.078;21.014;2022-09-28T13:26:34;169302.00;;;21.06;57.55
45255;BME280;30989;52.078;21.014;2022-09-28T13:29:10;169315.47;;;21.11;57.62
45255;BME280;30989;52.078;21.014;2022-09-28T13:31:44;169399.06;;;21.42;58.05
45255;BME280;30989;52.078;21.014;2022-09-28T13:34:15;169490.72;;;21.77;57.37
45255;BME280;30989;52.078;21.014;2022-09-28T13:36:45;169552.75;;;22.00;54.76
45255;BME280;30989;52.078;21.014;2022-09-28T13:42:09;169671.44;;;22.45;51.58
45255;BME280;30989;52.078;21.014;2022-09-28T13:50:27;169328.94;;;21.16;51.48
45255;BME280;30989;52.078;21.014;2022-09-28T13:56:33;168873.53;;;19.44;53.64
45255;BME280;30989;52.078;21.014;2022-09-28T14:02:33;168695.84;;;18.77;55.64
45255;BME280;30989;52.078;21.014;2022-09-28T14:04:55;168542.41;;;18.19;56.58
45255;BME280;30989;52.078;21.014;2022-09-28T14:07:25;168415.94;;;17.71;57.13
45255;BME280;30989;52.078;21.014;2022-09-28T14:15:00;168438.81;;;17.80;59.40
45255;BME280;30989;52.078;21.014;2022-09-28T14:19:54;168372.88;;;17.55;60.32
45255;BME280;30989;52.078;21.014;2022-09-28T14:25:29;168176.53;;;16.81;61.88
45255;BME280;30989;52.078;21.014;2022-09-28T14:28:33;168130.78;;;16.64;62.65
45255;BME280;30989;52.078;21.014;2022-09-28T14:31:08;168082.41;;;16.46;62.99
45255;BME280;30989;52.078;21.014;2022-09-28T14:33:41;168020.56;;;16.22;63.43
45255;BME280;30989;52.078;21.014;2022-09-28T14:36:36;167929.19;;;15.88;65.90
45255;BME280;30989;52.078;21.014;2022-09-28T14:39:26;167859.34;;;15.61;66.64
45255;BME280;30989;52.078;21.014;2022-09-28T14:42:14;167824.31;;;15.48;67.77
45255;BME280;30989;52.078;21.014;2022-09-28T14:47:34;167757.13;;;15.23;67.74
45255;BME280;30989;52.078;21.014;2022-09-28T14:50:26;167730.28;;;15.12;68.12
45255;BME280;30989;52.078;21.014;2022-09-28T14:52:53;167687.31;;;14.96;69.46
45255;BME280;30989;52.078;21.014;2022-09-28T14:55:26;167634.94;;;14.76;69.58
45255;BME280;30989;52.078;21.014;2022-09-28T14:57:56;167579.88;;;14.56;70.80
45255;BME280;30989;52.078;21.014;2022-09-28T15:00:25;167542.25;;;14.41;71.56
45255;BME280;30989;52.078;21.014;2022-09-28T15:02:53;167515.41;;;14.31;71.42
45255;BME280;30989;52.078;21.014;2022-09-28T15:05:27;167493.91;;;14.23;71.96
45255;BME280;30989;52.078;21.014;2022-09-28T15:07:54;167469.75;;;14.14;72.48
45255;BME280;30989;52.078;21.014;2022-09-28T15:10:29;167448.28;;;14.06;72.91
45255;BME280;30989;52.078;21.014;2022-09-28T15:12:59;167426.81;;;13.98;73.52
45255;BME280;30989;52.078;21.014;2022-09-28T15:15:32;167405.31;;;13.90;74.31
45255;BME280;30989;52.078;21.014;2022-09-28T15:20:40;167363.72;;;13.74;74.71
45255;BME280;30989;52.078;21.014;2022-09-28T15:26:00;167348.97;;;13.68;74.98
45255;BME280;30989;52.078;21.014;2022-09-28T15:28:26;167339.56;;;13.65;75.64
45255;BME280;30989;52.078;21.014;2022-09-28T15:30:58;167344.94;;;13.67;75.79
45255;BME280;30989;52.078;21.014;2022-09-28T15:33:26;167326.16;;;13.60;76.09
45255;BME280;30989;52.078;21.014;2022-09-28T15:36:24;167324.81;;;13.59;76.74
45255;BME280;30989;52.078;21.014;2022-09-28T15:38:55;167300.66;;;13.50;76.81